Pagrindinis puslapis
METAR-TAF:

METAR-TAF

Oro uostai :

Maskva, Rusija

platuma: 55-30-42N, ilguma: 037-30-26E, Aukštis: 173 m

Dabartinis oras

Ataskaita buvo paskelbta 46 minutes, ne 07:30 UTC
Vėjas 8 kt iš Rytų/Pietryčių
Temperatūra 2°C
Drėgmė 100%
Slėgis 995 hPa
Matomumas: 6000 m
Apsiniaukę ne aukštis 300 ft
sniegas

METAR: UUMO 270730Z 11004MPS 6000 -SN OVC003 02/02 Q0995 R26/290050 NOSIG RMK QBB100 QFE731/0975

Laikas: 11:16 (08:16 UTC)

Prognozė

Ataskaita buvo paskelbta 2 valandos ir 38 minutes, ne 05:38 UTC
Prognozė galioja nuo 27 metu 06 UTC su 27 metu 15 UTC
Vėjas 6 kt iš Rytų
Matomumas: 3000 m
Apsiniaukę ne aukštis 400 ft
lietus, sniegas, rūkana
Laikinai
nuo 27 metu 06 UTC su 27 metu 15 UTC
Matomumas: 1500 m
Su prošvaistėmis ne aukštis 300 ft
Su prošvaistėmis ne aukštis 1200 ft, Liūtiniai kamuoliniai debesys.
lietus

TAF: UUMO 270538Z 2706/2715 10003MPS 3000 -RASN BR OVC004 TEMPO 2706/2715 1500 SHRA BKN003 BKN012CB

Orai ataskaitas ir orų prognozės (METAR, TAF).

turimą stotys yra geltonos ir raudonos taškus žemėlapyje.

Perkelti pele per norėdami pamatyti stoties vardą.

Tada spustelėkite, norėdami matyti oro stebėjimo ir prognozės.

Norėdami pakeisti žemėlapį: spustelėkite ant žalios mygtukų su juodo kryžiaus žemyn,; žalią mygtuką su brūkšneliu, jei norite nutolinti; arba žalių rodyklių gretimoms žemėlapius.


METAR-TAF: